sensor_id;sensor_type;location;lat;lon;timestamp;P1;durP1;ratioP1;P2;durP2;ratioP2
55545;SDS011;44768;50.298;127.520;2022-07-09T00:01:09;28.67;;;26.23;;
55545;SDS011;44768;50.298;127.520;2022-07-09T00:06:11;16.23;;;13.43;;
55545;SDS011;44768;50.298;127.520;2022-07-09T00:11:13;6.28;;;3.75;;
55545;SDS011;44768;50.298;127.520;2022-07-09T00:16:14;3.35;;;1.77;;
55545;SDS011;44768;50.298;127.520;2022-07-09T00:21:16;7.32;;;1.98;;
55545;SDS011;44768;50.298;127.520;2022-07-09T00:26:17;4.13;;;1.58;;
55545;SDS011;44768;50.298;127.520;2022-07-09T00:31:20;5.53;;;1.50;;
55545;SDS011;44768;50.298;127.520;2022-07-09T00:36:21;2.83;;;0.95;;
55545;SDS011;44768;50.298;127.520;2022-07-09T00:41:23;5.45;;;1.13;;
55545;SDS011;44768;50.298;127.520;2022-07-09T00:46:26;7.20;;;1.35;;
55545;SDS011;44768;50.298;127.520;2022-07-09T00:51:28;5.60;;;1.65;;
55545;SDS011;44768;50.298;127.520;2022-07-09T00:56:30;7.57;;;1.45;;
55545;SDS011;44768;50.298;127.520;2022-07-09T01:01:32;8.27;;;1.33;;
55545;SDS011;44768;50.298;127.520;2022-07-09T01:06:33;5.82;;;1.33;;
55545;SDS011;44768;50.298;127.520;2022-07-09T01:11:37;8.75;;;1.30;;
55545;SDS011;44768;50.298;127.520;2022-07-09T01:16:39;38.22;;;29.10;;
55545;SDS011;44768;50.298;127.520;2022-07-09T01:21:41;7.18;;;1.50;;
55545;SDS011;44768;50.298;127.520;2022-07-09T01:26:43;2.65;;;0.95;;
55545;SDS011;44768;50.298;127.520;2022-07-09T01:31:48;6.88;;;1.70;;
55545;SDS011;44768;50.298;127.520;2022-07-09T01:36:50;4.18;;;2.33;;
55545;SDS011;44768;50.298;127.520;2022-07-09T01:41:51;3.65;;;1.83;;
55545;SDS011;44768;50.298;127.520;2022-07-09T01:46:53;7.93;;;3.03;;
55545;SDS011;44768;50.298;127.520;2022-07-09T01:51:55;4.63;;;2.30;;
55545;SDS011;44768;50.298;127.520;2022-07-09T01:56:56;38.40;;;5.07;;
55545;SDS011;44768;50.298;127.520;2022-07-09T02:01:57;6.00;;;3.78;;
55545;SDS011;44768;50.298;127.520;2022-07-09T02:06:59;6.85;;;2.28;;
55545;SDS011;44768;50.298;127.520;2022-07-09T02:12:01;6.00;;;3.00;;
55545;SDS011;44768;50.298;127.520;2022-07-09T02:17:05;10.35;;;1.83;;
55545;SDS011;44768;50.298;127.520;2022-07-09T02:22:16;3.70;;;1.60;;
55545;SDS011;44768;50.298;127.520;2022-07-09T02:27:17;10.52;;;2.95;;
55545;SDS011;44768;50.298;127.520;2022-07-09T02:32:20;11.02;;;1.40;;
55545;SDS011;44768;50.298;127.520;2022-07-09T02:37:21;8.20;;;1.67;;
55545;SDS011;44768;50.298;127.520;2022-07-09T02:42:23;7.10;;;1.85;;
55545;SDS011;44768;50.298;127.520;2022-07-09T02:47:24;13.45;;;4.03;;
55545;SDS011;44768;50.298;127.520;2022-07-09T02:52:26;8.18;;;5.45;;
55545;SDS011;44768;50.298;127.520;2022-07-09T02:57:27;9.40;;;7.63;;
55545;SDS011;44768;50.298;127.520;2022-07-09T03:02:29;11.77;;;8.50;;
55545;SDS011;44768;50.298;127.520;2022-07-09T03:07:31;30.80;;;28.10;;
55545;SDS011;44768;50.298;127.520;2022-07-09T03:12:33;34.05;;;31.42;;
55545;SDS011;44768;50.298;127.520;2022-07-09T03:17:34;29.35;;;26.67;;
55545;SDS011;44768;50.298;127.520;2022-07-09T03:22:36;33.00;;;29.73;;
55545;SDS011;44768;50.298;127.520;2022-07-09T03:27:39;35.67;;;32.17;;
55545;SDS011;44768;50.298;127.520;2022-07-09T03:32:41;30.02;;;27.27;;
55545;SDS011;44768;50.298;127.520;2022-07-09T03:37:43;36.15;;;33.28;;
55545;SDS011;44768;50.298;127.520;2022-07-09T03:42:45;33.47;;;30.80;;
55545;SDS011;44768;50.298;127.520;2022-07-09T03:47:46;31.30;;;28.02;;
55545;SDS011;44768;50.298;127.520;2022-07-09T03:52:49;29.35;;;26.70;;
55545;SDS011;44768;50.298;127.520;2022-07-09T03:57:51;26.35;;;23.65;;
55545;SDS011;44768;50.298;127.520;2022-07-09T04:02:53;22.20;;;20.45;;
55545;SDS011;44768;50.298;127.520;2022-07-09T04:07:55;25.95;;;23.42;;
55545;SDS011;44768;50.298;127.520;2022-07-09T04:12:56;23.30;;;21.30;;
55545;SDS011;44768;50.298;127.520;2022-07-09T04:17:58;24.95;;;22.63;;
55545;SDS011;44768;50.298;127.520;2022-07-09T04:23:03;24.15;;;21.77;;
55545;SDS011;44768;50.298;127.520;2022-07-09T04:28:05;20.77;;;19.05;;
55545;SDS011;44768;50.298;127.520;2022-07-09T04:33:07;8.68;;;6.88;;
55545;SDS011;44768;50.298;127.520;2022-07-09T04:38:10;12.70;;;2.90;;
55545;SDS011;44768;50.298;127.520;2022-07-09T04:43:13;8.23;;;2.47;;
55545;SDS011;44768;50.298;127.520;2022-07-09T04:48:15;4.85;;;1.98;;
55545;SDS011;44768;50.298;127.520;2022-07-09T04:53:16;5.03;;;1.80;;
55545;SDS011;44768;50.298;127.520;2022-07-09T04:58:18;5.50;;;1.77;;
55545;SDS011;44768;50.298;127.520;2022-07-09T05:03:19;11.52;;;1.77;;
55545;SDS011;44768;50.298;127.520;2022-07-09T05:08:22;3.90;;;1.33;;
55545;SDS011;44768;50.298;127.520;2022-07-09T05:13:23;3.08;;;1.35;;
55545;SDS011;44768;50.298;127.520;2022-07-09T05:18:25;12.38;;;1.45;;
55545;SDS011;44768;50.298;127.520;2022-07-09T05:23:27;3.00;;;1.20;;
55545;SDS011;44768;50.298;127.520;2022-07-09T05:28:28;4.22;;;1.10;;
55545;SDS011;44768;50.298;127.520;2022-07-09T05:33:30;6.43;;;2.00;;
55545;SDS011;44768;50.298;127.520;2022-07-09T05:38:33;6.20;;;1.90;;
55545;SDS011;44768;50.298;127.520;2022-07-09T05:43:34;6.68;;;1.40;;
55545;SDS011;44768;50.298;127.520;2022-07-09T05:48:36;6.28;;;1.67;;
55545;SDS011;44768;50.298;127.520;2022-07-09T05:53:37;1.60;;;0.90;;
55545;SDS011;44768;50.298;127.520;2022-07-09T05:58:40;3.58;;;1.15;;
55545;SDS011;44768;50.298;127.520;2022-07-09T06:03:43;7.70;;;1.08;;
55545;SDS011;44768;50.298;127.520;2022-07-09T06:08:45;6.82;;;1.20;;
55545;SDS011;44768;50.298;127.520;2022-07-09T06:13:46;7.25;;;0.90;;
55545;SDS011;44768;50.298;127.520;2022-07-09T06:18:48;15.38;;;1.42;;
55545;SDS011;44768;50.298;127.520;2022-07-09T06:23:49;3.67;;;1.00;;
55545;SDS011;44768;50.298;127.520;2022-07-09T06:28:51;5.20;;;1.00;;
55545;SDS011;44768;50.298;127.520;2022-07-09T06:33:53;5.07;;;1.15;;
55545;SDS011;44768;50.298;127.520;2022-07-09T06:38:55;3.15;;;0.75;;
55545;SDS011;44768;50.298;127.520;2022-07-09T06:44:15;17.08;;;3.33;;
55545;SDS011;44768;50.298;127.520;2022-07-09T06:49:17;15.18;;;3.20;;
55545;SDS011;44768;50.298;127.520;2022-07-09T06:54:18;19.20;;;2.60;;
55545;SDS011;44768;50.298;127.520;2022-07-09T06:59:20;11.07;;;1.52;;
55545;SDS011;44768;50.298;127.520;2022-07-09T07:04:22;5.80;;;1.25;;
55545;SDS011;44768;50.298;127.520;2022-07-09T07:09:25;8.32;;;1.15;;
55545;SDS011;44768;50.298;127.520;2022-07-09T07:14:27;7.45;;;1.40;;
55545;SDS011;44768;50.298;127.520;2022-07-09T07:19:28;9.45;;;1.17;;
55545;SDS011;44768;50.298;127.520;2022-07-09T07:24:30;14.18;;;1.73;;
55545;SDS011;44768;50.298;127.520;2022-07-09T07:29:32;17.15;;;1.90;;
55545;SDS011;44768;50.298;127.520;2022-07-09T07:34:34;8.05;;;1.23;;
55545;SDS011;44768;50.298;127.520;2022-07-09T07:39:35;5.25;;;1.05;;
55545;SDS011;44768;50.298;127.520;2022-07-09T07:44:37;15.95;;;1.20;;
55545;SDS011;44768;50.298;127.520;2022-07-09T07:49:38;15.07;;;1.38;;
55545;SDS011;44768;50.298;127.520;2022-07-09T07:54:40;9.68;;;1.23;;
55545;SDS011;44768;50.298;127.520;2022-07-09T07:59:43;13.75;;;1.45;;
55545;SDS011;44768;50.298;127.520;2022-07-09T08:04:44;12.60;;;1.75;;
55545;SDS011;44768;50.298;127.520;2022-07-09T08:09:46;9.20;;;1.50;;
55545;SDS011;44768;50.298;127.520;2022-07-09T08:14:48;10.48;;;1.52;;
55545;SDS011;44768;50.298;127.520;2022-07-09T08:19:49;21.13;;;3.78;;
55545;SDS011;44768;50.298;127.520;2022-07-09T08:24:51;7.57;;;1.48;;
55545;SDS011;44768;50.298;127.520;2022-07-09T08:29:52;12.05;;;1.70;;
55545;SDS011;44768;50.298;127.520;2022-07-09T08:34:54;8.15;;;1.60;;
55545;SDS011;44768;50.298;127.520;2022-07-09T08:39:57;14.07;;;1.40;;
55545;SDS011;44768;50.298;127.520;2022-07-09T08:44:58;5.63;;;1.08;;
55545;SDS011;44768;50.298;127.520;2022-07-09T08:50:00;15.38;;;3.55;;
55545;SDS011;44768;50.298;127.520;2022-07-09T08:55:04;12.38;;;2.60;;
55545;SDS011;44768;50.298;127.520;2022-07-09T09:00:08;3.88;;;1.30;;
55545;SDS011;44768;50.298;127.520;2022-07-09T09:05:14;10.07;;;1.30;;
55545;SDS011;44768;50.298;127.520;2022-07-09T09:10:20;10.63;;;1.38;;
55545;SDS011;44768;50.298;127.520;2022-07-09T09:15:24;14.57;;;1.55;;
55545;SDS011;44768;50.298;127.520;2022-07-09T09:20:26;9.98;;;1.60;;
55545;SDS011;44768;50.298;127.520;2022-07-09T09:25:28;12.63;;;1.20;;
55545;SDS011;44768;50.298;127.520;2022-07-09T09:30:30;17.63;;;2.22;;
55545;SDS011;44768;50.298;127.520;2022-07-09T09:35:35;14.63;;;1.75;;
55545;SDS011;44768;50.298;127.520;2022-07-09T09:40:47;9.50;;;1.30;;
55545;SDS011;44768;50.298;127.520;2022-07-09T09:45:48;24.73;;;1.98;;
55545;SDS011;44768;50.298;127.520;2022-07-09T09:50:52;14.77;;;2.05;;
55545;SDS011;44768;50.298;127.520;2022-07-09T09:55:59;13.82;;;1.45;;
55545;SDS011;44768;50.298;127.520;2022-07-09T10:01:01;10.27;;;3.60;;
55545;SDS011;44768;50.298;127.520;2022-07-09T10:06:03;13.15;;;2.92;;
55545;SDS011;44768;50.298;127.520;2022-07-09T10:11:05;20.50;;;2.60;;
55545;SDS011;44768;50.298;127.520;2022-07-09T10:16:07;11.45;;;3.15;;
55545;SDS011;44768;50.298;127.520;2022-07-09T10:21:09;9.15;;;2.80;;
55545;SDS011;44768;50.298;127.520;2022-07-09T10:26:10;16.88;;;2.35;;
55545;SDS011;44768;50.298;127.520;2022-07-09T10:31:12;14.98;;;2.25;;
55545;SDS011;44768;50.298;127.520;2022-07-09T10:36:21;8.50;;;1.90;;
55545;SDS011;44768;50.298;127.520;2022-07-09T10:41:23;13.68;;;2.28;;
55545;SDS011;44768;50.298;127.520;2022-07-09T10:46:25;16.65;;;2.63;;
55545;SDS011;44768;50.298;127.520;2022-07-09T10:51:27;30.92;;;19.48;;
55545;SDS011;44768;50.298;127.520;2022-07-09T10:56:29;15.93;;;7.25;;
55545;SDS011;44768;50.298;127.520;2022-07-09T11:01:30;12.23;;;4.75;;
55545;SDS011;44768;50.298;127.520;2022-07-09T11:06:32;11.30;;;4.55;;
55545;SDS011;44768;50.298;127.520;2022-07-09T11:11:34;8.55;;;2.53;;
55545;SDS011;44768;50.298;127.520;2022-07-09T11:16:36;9.18;;;2.88;;
55545;SDS011;44768;50.298;127.520;2022-07-09T11:21:39;16.00;;;3.70;;
55545;SDS011;44768;50.298;127.520;2022-07-09T11:26:40;10.57;;;3.55;;
55545;SDS011;44768;50.298;127.520;2022-07-09T11:31:51;11.55;;;3.58;;
55545;SDS011;44768;50.298;127.520;2022-07-09T11:36:54;10.20;;;3.20;;
55545;SDS011;44768;50.298;127.520;2022-07-09T11:41:59;22.67;;;8.30;;
55545;SDS011;44768;50.298;127.520;2022-07-09T11:47:11;8.65;;;4.32;;
55545;SDS011;44768;50.298;127.520;2022-07-09T11:52:19;12.75;;;4.47;;
55545;SDS011;44768;50.298;127.520;2022-07-09T11:57:22;18.65;;;5.05;;
55545;SDS011;44768;50.298;127.520;2022-07-09T12:12:55;31.83;;;22.27;;
55545;SDS011;44768;50.298;127.520;2022-07-09T12:18:16;36.80;;;31.83;;
55545;SDS011;44768;50.298;127.520;2022-07-09T12:23:36;96.70;;;86.43;;
55545;SDS011;44768;50.298;127.520;2022-07-09T12:28:56;58.50;;;51.70;;
55545;SDS011;44768;50.298;127.520;2022-07-09T12:34:16;31.15;;;28.02;;
55545;SDS011;44768;50.298;127.520;2022-07-09T12:39:36;25.85;;;23.30;;
55545;SDS011;44768;50.298;127.520;2022-07-09T12:44:39;36.63;;;33.30;;
55545;SDS011;44768;50.298;127.520;2022-07-09T12:49:40;23.92;;;21.48;;
55545;SDS011;44768;50.298;127.520;2022-07-09T12:54:42;28.45;;;23.35;;
55545;SDS011;44768;50.298;127.520;2022-07-09T12:59:43;34.35;;;27.52;;
55545;SDS011;44768;50.298;127.520;2022-07-09T13:04:45;33.88;;;30.15;;
55545;SDS011;44768;50.298;127.520;2022-07-09T13:09:46;42.08;;;37.45;;
55545;SDS011;44768;50.298;127.520;2022-07-09T13:14:48;47.92;;;42.78;;
55545;SDS011;44768;50.298;127.520;2022-07-09T13:19:50;54.28;;;49.38;;
55545;SDS011;44768;50.298;127.520;2022-07-09T13:24:53;54.67;;;49.53;;
55545;SDS011;44768;50.298;127.520;2022-07-09T13:29:54;43.95;;;39.50;;
55545;SDS011;44768;50.298;127.520;2022-07-09T13:34:56;42.90;;;38.97;;
55545;SDS011;44768;50.298;127.520;2022-07-09T13:39:58;41.75;;;37.40;;
55545;SDS011;44768;50.298;127.520;2022-07-09T13:45:00;47.13;;;42.78;;
55545;SDS011;44768;50.298;127.520;2022-07-09T13:50:03;24.00;;;21.83;;
55545;SDS011;44768;50.298;127.520;2022-07-09T13:55:06;17.20;;;15.25;;
55545;SDS011;44768;50.298;127.520;2022-07-09T14:00:08;21.88;;;19.95;;
55545;SDS011;44768;50.298;127.520;2022-07-09T14:05:10;23.13;;;20.92;;
55545;SDS011;44768;50.298;127.520;2022-07-09T14:10:12;29.35;;;26.67;;
55545;SDS011;44768;50.298;127.520;2022-07-09T14:15:14;44.58;;;41.15;;
55545;SDS011;44768;50.298;127.520;2022-07-09T14:20:31;55.60;;;51.05;;
55545;SDS011;44768;50.298;127.520;2022-07-09T14:25:33;78.55;;;72.53;;
55545;SDS011;44768;50.298;127.520;2022-07-09T14:30:34;42.72;;;31.23;;
55545;SDS011;44768;50.298;127.520;2022-07-09T14:35:39;82.97;;;77.00;;
55545;SDS011;44768;50.298;127.520;2022-07-09T14:40:42;82.75;;;76.53;;
55545;SDS011;44768;50.298;127.520;2022-07-09T14:45:45;98.55;;;90.80;;
55545;SDS011;44768;50.298;127.520;2022-07-09T14:55:57;116.13;;;106.47;;
55545;SDS011;44768;50.298;127.520;2022-07-09T15:01:00;136.75;;;126.65;;
55545;SDS011;44768;50.298;127.520;2022-07-09T15:06:01;139.95;;;129.05;;
55545;SDS011;44768;50.298;127.520;2022-07-09T15:11:03;166.43;;;153.63;;
55545;SDS011;44768;50.298;127.520;2022-07-09T15:16:05;167.45;;;153.23;;
55545;SDS011;44768;50.298;127.520;2022-07-09T15:21:07;166.73;;;153.20;;
55545;SDS011;44768;50.298;127.520;2022-07-09T15:26:11;165.77;;;151.75;;
55545;SDS011;44768;50.298;127.520;2022-07-09T15:31:13;173.15;;;159.35;;
55545;SDS011;44768;50.298;127.520;2022-07-09T15:36:14;176.68;;;161.95;;
55545;SDS011;44768;50.298;127.520;2022-07-09T15:41:16;183.30;;;168.90;;
55545;SDS011;44768;50.298;127.520;2022-07-09T15:46:17;156.38;;;143.65;;
55545;SDS011;44768;50.298;127.520;2022-07-09T15:51:20;160.18;;;147.23;;
55545;SDS011;44768;50.298;127.520;2022-07-09T15:56:21;160.60;;;147.27;;
55545;SDS011;44768;50.298;127.520;2022-07-09T16:01:24;146.38;;;134.45;;
55545;SDS011;44768;50.298;127.520;2022-07-09T16:06:27;164.95;;;151.32;;
55545;SDS011;44768;50.298;127.520;2022-07-09T16:11:29;160.77;;;147.52;;
55545;SDS011;44768;50.298;127.520;2022-07-09T16:16:49;171.60;;;158.00;;
55545;SDS011;44768;50.298;127.520;2022-07-09T16:21:50;148.50;;;136.35;;
55545;SDS011;44768;50.298;127.520;2022-07-09T16:26:52;167.88;;;153.75;;
55545;SDS011;44768;50.298;127.520;2022-07-09T16:31:54;144.85;;;132.90;;
55545;SDS011;44768;50.298;127.520;2022-07-09T16:36:55;152.57;;;140.07;;
55545;SDS011;44768;50.298;127.520;2022-07-09T16:41:56;155.35;;;142.60;;
55545;SDS011;44768;50.298;127.520;2022-07-09T16:46:58;150.73;;;137.93;;
55545;SDS011;44768;50.298;127.520;2022-07-09T16:52:01;150.90;;;138.52;;
55545;SDS011;44768;50.298;127.520;2022-07-09T16:57:02;145.73;;;134.00;;
55545;SDS011;44768;50.298;127.520;2022-07-09T17:02:04;158.57;;;146.15;;
55545;SDS011;44768;50.298;127.520;2022-07-09T17:07:06;153.77;;;141.55;;
55545;SDS011;44768;50.298;127.520;2022-07-09T17:12:07;141.40;;;129.35;;
55545;SDS011;44768;50.298;127.520;2022-07-09T17:17:10;150.23;;;137.77;;
55545;SDS011;44768;50.298;127.520;2022-07-09T17:22:11;143.80;;;132.65;;
55545;SDS011;44768;50.298;127.520;2022-07-09T17:27:13;151.35;;;139.32;;
55545;SDS011;44768;50.298;127.520;2022-07-09T17:32:16;160.68;;;148.52;;
55545;SDS011;44768;50.298;127.520;2022-07-09T17:37:18;147.45;;;135.95;;
55545;SDS011;44768;50.298;127.520;2022-07-09T17:42:19;144.13;;;133.30;;
55545;SDS011;44768;50.298;127.520;2022-07-09T17:47:21;148.63;;;138.00;;
55545;SDS011;44768;50.298;127.520;2022-07-09T17:52:24;147.10;;;135.00;;
55545;SDS011;44768;50.298;127.520;2022-07-09T17:57:25;96.75;;;88.43;;
55545;SDS011;44768;50.298;127.520;2022-07-09T18:02:27;99.03;;;91.18;;
55545;SDS011;44768;50.298;127.520;2022-07-09T18:07:28;50.08;;;45.50;;
55545;SDS011;44768;50.298;127.520;2022-07-09T18:12:30;36.65;;;32.88;;
55545;SDS011;44768;50.298;127.520;2022-07-09T18:17:32;25.73;;;22.08;;
55545;SDS011;44768;50.298;127.520;2022-07-09T18:22:35;23.25;;;19.08;;
55545;SDS011;44768;50.298;127.520;2022-07-09T18:27:39;9.43;;;5.32;;
55545;SDS011;44768;50.298;127.520;2022-07-09T18:32:40;3.05;;;1.30;;
55545;SDS011;44768;50.298;127.520;2022-07-09T18:37:42;6.80;;;1.60;;
55545;SDS011;44768;50.298;127.520;2022-07-09T18:42:43;4.95;;;1.20;;
55545;SDS011;44768;50.298;127.520;2022-07-09T18:47:45;2.70;;;1.20;;
55545;SDS011;44768;50.298;127.520;2022-07-09T18:52:48;6.80;;;1.33;;
55545;SDS011;44768;50.298;127.520;2022-07-09T18:57:49;2.58;;;0.95;;
55545;SDS011;44768;50.298;127.520;2022-07-09T19:02:51;4.22;;;1.10;;
55545;SDS011;44768;50.298;127.520;2022-07-09T19:07:52;3.03;;;1.17;;
55545;SDS011;44768;50.298;127.520;2022-07-09T19:12:54;4.28;;;1.20;;
55545;SDS011;44768;50.298;127.520;2022-07-09T19:17:55;3.72;;;1.05;;
55545;SDS011;44768;50.298;127.520;2022-07-09T19:22:57;3.63;;;1.08;;
55545;SDS011;44768;50.298;127.520;2022-07-09T19:27:59;1.55;;;1.02;;
55545;SDS011;44768;50.298;127.520;2022-07-09T19:33:02;6.00;;;0.98;;
55545;SDS011;44768;50.298;127.520;2022-07-09T19:38:22;2.70;;;0.90;;
55545;SDS011;44768;50.298;127.520;2022-07-09T19:43:24;1.88;;;0.75;;
55545;SDS011;44768;50.298;127.520;2022-07-09T19:48:25;4.97;;;1.20;;
55545;SDS011;44768;50.298;127.520;2022-07-09T19:53:28;10.50;;;0.98;;
55545;SDS011;44768;50.298;127.520;2022-07-09T19:58:30;6.00;;;1.00;;
55545;SDS011;44768;50.298;127.520;2022-07-09T20:03:31;6.43;;;1.00;;
55545;SDS011;44768;50.298;127.520;2022-07-09T20:08:33;7.90;;;0.80;;
55545;SDS011;44768;50.298;127.520;2022-07-09T20:13:34;5.18;;;0.77;;
55545;SDS011;44768;50.298;127.520;2022-07-09T20:18:36;5.82;;;1.13;;
55545;SDS011;44768;50.298;127.520;2022-07-09T20:23:37;8.10;;;0.82;;
55545;SDS011;44768;50.298;127.520;2022-07-09T20:28:39;9.23;;;1.35;;
55545;SDS011;44768;50.298;127.520;2022-07-09T20:33:41;3.25;;;0.98;;
55545;SDS011;44768;50.298;127.520;2022-07-09T20:38:42;3.85;;;1.20;;
55545;SDS011;44768;50.298;127.520;2022-07-09T20:43:44;3.95;;;0.75;;
55545;SDS011;44768;50.298;127.520;2022-07-09T20:48:46;8.00;;;1.00;;
55545;SDS011;44768;50.298;127.520;2022-07-09T20:53:49;6.45;;;1.00;;
55545;SDS011;44768;50.298;127.520;2022-07-09T20:58:50;3.50;;;1.08;;
55545;SDS011;44768;50.298;127.520;2022-07-09T21:03:52;1.20;;;0.70;;
55545;SDS011;44768;50.298;127.520;2022-07-09T21:08:54;5.47;;;1.00;;
55545;SDS011;44768;50.298;127.520;2022-07-09T21:13:56;6.38;;;0.90;;
55545;SDS011;44768;50.298;127.520;2022-07-09T21:18:58;4.22;;;0.90;;
55545;SDS011;44768;50.298;127.520;2022-07-09T21:23:59;4.75;;;0.80;;
55545;SDS011;44768;50.298;127.520;2022-07-09T21:29:01;5.78;;;3.58;;
55545;SDS011;44768;50.298;127.520;2022-07-09T21:34:03;16.60;;;4.45;;
55545;SDS011;44768;50.298;127.520;2022-07-09T21:39:04;14.85;;;10.95;;
55545;SDS011;44768;50.298;127.520;2022-07-09T21:44:06;11.05;;;10.02;;
55545;SDS011;44768;50.298;127.520;2022-07-09T21:49:07;45.00;;;41.00;;
55545;SDS011;44768;50.298;127.520;2022-07-09T21:54:11;72.28;;;66.88;;
55545;SDS011;44768;50.298;127.520;2022-07-09T21:59:14;71.15;;;65.65;;
55545;SDS011;44768;50.298;127.520;2022-07-09T22:04:15;88.13;;;81.88;;
55545;SDS011;44768;50.298;127.520;2022-07-09T22:09:17;95.50;;;87.88;;
55545;SDS011;44768;50.298;127.520;2022-07-09T22:14:18;97.10;;;90.05;;
55545;SDS011;44768;50.298;127.520;2022-07-09T22:19:20;68.32;;;62.42;;
55545;SDS011;44768;50.298;127.520;2022-07-09T22:24:21;40.17;;;37.08;;
55545;SDS011;44768;50.298;127.520;2022-07-09T22:29:23;18.88;;;17.20;;
55545;SDS011;44768;50.298;127.520;2022-07-09T22:34:25;6.18;;;5.50;;
55545;SDS011;44768;50.298;127.520;2022-07-09T22:39:27;7.20;;;4.70;;
55545;SDS011;44768;50.298;127.520;2022-07-09T22:44:30;18.85;;;17.23;;
55545;SDS011;44768;50.298;127.520;2022-07-09T22:49:31;26.05;;;23.55;;
55545;SDS011;44768;50.298;127.520;2022-07-09T22:54:34;28.08;;;25.33;;
55545;SDS011;44768;50.298;127.520;2022-07-09T22:59:36;24.70;;;22.67;;
55545;SDS011;44768;50.298;127.520;2022-07-09T23:04:37;32.22;;;23.90;;
55545;SDS011;44768;50.298;127.520;2022-07-09T23:09:39;39.08;;;35.78;;
55545;SDS011;44768;50.298;127.520;2022-07-09T23:14:40;38.05;;;34.85;;
55545;SDS011;44768;50.298;127.520;2022-07-09T23:19:43;43.50;;;39.88;;
55545;SDS011;44768;50.298;127.520;2022-07-09T23:24:45;39.20;;;36.00;;
55545;SDS011;44768;50.298;127.520;2022-07-09T23:29:47;45.60;;;41.42;;
55545;SDS011;44768;50.298;127.520;2022-07-09T23:34:49;54.33;;;49.60;;
55545;SDS011;44768;50.298;127.520;2022-07-09T23:39:50;51.58;;;47.05;;
55545;SDS011;44768;50.298;127.520;2022-07-09T23:44:52;42.13;;;38.33;;
55545;SDS011;44768;50.298;127.520;2022-07-09T23:49:55;24.23;;;19.73;;
55545;SDS011;44768;50.298;127.520;2022-07-09T23:54:57;16.00;;;14.32;;
